sensor_id;sensor_type;location;lat;lon;timestamp;temperature;humidity
36206;DHT22;22242;48.796;9.930;2022-12-18T00:01:00;-6.00;99.90
36206;DHT22;22242;48.796;9.930;2022-12-18T00:03:31;-5.90;99.90
36206;DHT22;22242;48.796;9.930;2022-12-18T00:05:58;-6.00;99.90
36206;DHT22;22242;48.796;9.930;2022-12-18T00:08:24;-6.00;99.90
36206;DHT22;22242;48.796;9.930;2022-12-18T00:10:51;-6.10;99.90
36206;DHT22;22242;48.796;9.930;2022-12-18T00:13:19;-6.20;99.90
36206;DHT22;22242;48.796;9.930;2022-12-18T00:15:46;-6.10;99.90
36206;DHT22;22242;48.796;9.930;2022-12-18T00:18:12;-6.10;99.90
36206;DHT22;22242;48.796;9.930;2022-12-18T00:20:39;-6.20;99.90
36206;DHT22;22242;48.796;9.930;2022-12-18T00:23:06;-6.20;99.90
36206;DHT22;22242;48.796;9.930;2022-12-18T00:25:33;-6.20;99.90
36206;DHT22;22242;48.796;9.930;2022-12-18T00:28:00;-6.20;99.90
36206;DHT22;22242;48.796;9.930;2022-12-18T00:30:28;-6.20;99.90
36206;DHT22;22242;48.796;9.930;2022-12-18T00:32:55;-6.20;99.90
36206;DHT22;22242;48.796;9.930;2022-12-18T00:35:24;-6.30;99.90
36206;DHT22;22242;48.796;9.930;2022-12-18T00:37:51;-6.40;99.90
36206;DHT22;22242;48.796;9.930;2022-12-18T00:40:18;-6.50;99.90
36206;DHT22;22242;48.796;9.930;2022-12-18T00:42:45;-6.50;99.90
36206;DHT22;22242;48.796;9.930;2022-12-18T00:45:23;-6.30;99.90
36206;DHT22;22242;48.796;9.930;2022-12-18T00:47:51;-6.40;99.90
36206;DHT22;22242;48.796;9.930;2022-12-18T00:50:18;-6.50;99.90
36206;DHT22;22242;48.796;9.930;2022-12-18T00:52:44;-6.50;99.90
36206;DHT22;22242;48.796;9.930;2022-12-18T00:55:11;-6.40;99.90
36206;DHT22;22242;48.796;9.930;2022-12-18T00:57:38;-6.20;99.90
36206;DHT22;22242;48.796;9.930;2022-12-18T01:00:06;-6.00;99.90
36206;DHT22;22242;48.796;9.930;2022-12-18T01:02:34;-5.80;99.90
36206;DHT22;22242;48.796;9.930;2022-12-18T01:05:02;-6.00;99.90
36206;DHT22;22242;48.796;9.930;2022-12-18T01:07:29;-6.20;99.90
36206;DHT22;22242;48.796;9.930;2022-12-18T01:09:56;-6.30;99.90
36206;DHT22;22242;48.796;9.930;2022-12-18T01:12:23;-6.30;99.90
36206;DHT22;22242;48.796;9.930;2022-12-18T01:14:49;-6.20;99.90
36206;DHT22;22242;48.796;9.930;2022-12-18T01:17:16;-6.20;99.90
36206;DHT22;22242;48.796;9.930;2022-12-18T01:19:43;-6.20;99.90
36206;DHT22;22242;48.796;9.930;2022-12-18T01:22:11;-6.30;99.90
36206;DHT22;22242;48.796;9.930;2022-12-18T01:24:37;-6.30;99.90
36206;DHT22;22242;48.796;9.930;2022-12-18T01:27:04;-6.30;99.90
36206;DHT22;22242;48.796;9.930;2022-12-18T01:29:31;-6.30;99.90
36206;DHT22;22242;48.796;9.930;2022-12-18T01:31:57;-6.40;99.90
36206;DHT22;22242;48.796;9.930;2022-12-18T01:34:24;-6.40;99.90
36206;DHT22;22242;48.796;9.930;2022-12-18T01:36:51;-6.50;99.90
36206;DHT22;22242;48.796;9.930;2022-12-18T01:39:19;-6.50;99.90
36206;DHT22;22242;48.796;9.930;2022-12-18T01:41:46;-6.50;99.90
36206;DHT22;22242;48.796;9.930;2022-12-18T01:47:14;-6.40;99.90
36206;DHT22;22242;48.796;9.930;2022-12-18T01:49:42;-6.40;99.90
36206;DHT22;22242;48.796;9.930;2022-12-18T01:52:08;-6.50;99.90
36206;DHT22;22242;48.796;9.930;2022-12-18T01:54:37;-6.60;99.90
36206;DHT22;22242;48.796;9.930;2022-12-18T01:57:04;-6.60;99.90
36206;DHT22;22242;48.796;9.930;2022-12-18T01:59:30;-6.70;99.90
36206;DHT22;22242;48.796;9.930;2022-12-18T02:01:58;-6.60;99.90
36206;DHT22;22242;48.796;9.930;2022-12-18T02:04:26;-6.50;99.90
36206;DHT22;22242;48.796;9.930;2022-12-18T02:06:54;-6.60;99.90
36206;DHT22;22242;48.796;9.930;2022-12-18T02:09:24;-6.70;99.90
36206;DHT22;22242;48.796;9.930;2022-12-18T02:11:56;-6.70;99.90
36206;DHT22;22242;48.796;9.930;2022-12-18T02:14:28;-6.80;99.90
36206;DHT22;22242;48.796;9.930;2022-12-18T02:16:59;-6.90;99.90
36206;DHT22;22242;48.796;9.930;2022-12-18T02:19:36;-6.90;99.90
36206;DHT22;22242;48.796;9.930;2022-12-18T02:22:07;-7.00;99.90
36206;DHT22;22242;48.796;9.930;2022-12-18T02:24:41;-7.00;99.90
36206;DHT22;22242;48.796;9.930;2022-12-18T02:27:12;-7.00;99.90
36206;DHT22;22242;48.796;9.930;2022-12-18T02:29:40;-7.00;99.90
36206;DHT22;22242;48.796;9.930;2022-12-18T02:32:08;-7.10;99.90
36206;DHT22;22242;48.796;9.930;2022-12-18T02:34:37;-7.00;99.90
36206;DHT22;22242;48.796;9.930;2022-12-18T02:37:06;-7.10;99.90
36206;DHT22;22242;48.796;9.930;2022-12-18T02:39:34;-7.20;99.90
36206;DHT22;22242;48.796;9.930;2022-12-18T02:42:03;-7.30;99.90
36206;DHT22;22242;48.796;9.930;2022-12-18T02:44:35;-7.30;99.90
36206;DHT22;22242;48.796;9.930;2022-12-18T02:47:03;-7.40;99.90
36206;DHT22;22242;48.796;9.930;2022-12-18T02:49:32;-7.40;99.90
36206;DHT22;22242;48.796;9.930;2022-12-18T02:52:03;-7.40;99.90
36206;DHT22;22242;48.796;9.930;2022-12-18T02:54:36;-7.50;99.90
36206;DHT22;22242;48.796;9.930;2022-12-18T02:57:09;-7.50;99.90
36206;DHT22;22242;48.796;9.930;2022-12-18T02:59:43;-7.40;99.90
36206;DHT22;22242;48.796;9.930;2022-12-18T03:02:15;-7.30;99.90
36206;DHT22;22242;48.796;9.930;2022-12-18T03:04:46;-7.20;99.90
36206;DHT22;22242;48.796;9.930;2022-12-18T03:07:18;-7.10;99.90
36206;DHT22;22242;48.796;9.930;2022-12-18T03:09:48;-7.10;99.90
36206;DHT22;22242;48.796;9.930;2022-12-18T03:12:17;-7.10;99.90
36206;DHT22;22242;48.796;9.930;2022-12-18T03:14:56;-7.20;99.90
36206;DHT22;22242;48.796;9.930;2022-12-18T03:17:26;-7.10;99.90
36206;DHT22;22242;48.796;9.930;2022-12-18T03:19:54;-7.00;99.90
36206;DHT22;22242;48.796;9.930;2022-12-18T03:22:22;-7.10;99.90
36206;DHT22;22242;48.796;9.930;2022-12-18T03:24:52;-6.90;99.90
36206;DHT22;22242;48.796;9.930;2022-12-18T03:27:20;-6.90;99.90
36206;DHT22;22242;48.796;9.930;2022-12-18T03:29:51;-7.00;99.90
36206;DHT22;22242;48.796;9.930;2022-12-18T03:32:27;-7.10;99.90
36206;DHT22;22242;48.796;9.930;2022-12-18T03:34:55;-7.20;99.90
36206;DHT22;22242;48.796;9.930;2022-12-18T03:37:24;-7.30;99.90
36206;DHT22;22242;48.796;9.930;2022-12-18T03:39:51;-7.50;99.90
36206;DHT22;22242;48.796;9.930;2022-12-18T03:42:20;-7.60;99.90
36206;DHT22;22242;48.796;9.930;2022-12-18T03:44:54;-7.60;99.90
36206;DHT22;22242;48.796;9.930;2022-12-18T03:47:23;-7.70;99.90
36206;DHT22;22242;48.796;9.930;2022-12-18T03:49:55;-7.70;99.90
36206;DHT22;22242;48.796;9.930;2022-12-18T03:52:25;-7.80;99.90
36206;DHT22;22242;48.796;9.930;2022-12-18T03:54:53;-7.60;99.90
36206;DHT22;22242;48.796;9.930;2022-12-18T03:57:22;-7.50;99.90
36206;DHT22;22242;48.796;9.930;2022-12-18T03:59:54;-7.50;99.90
36206;DHT22;22242;48.796;9.930;2022-12-18T04:02:24;-7.20;99.90
36206;DHT22;22242;48.796;9.930;2022-12-18T04:04:53;-7.10;99.90
36206;DHT22;22242;48.796;9.930;2022-12-18T04:07:23;-7.00;99.90
36206;DHT22;22242;48.796;9.930;2022-12-18T04:09:50;-7.00;99.90
36206;DHT22;22242;48.796;9.930;2022-12-18T04:12:24;-6.90;99.90
36206;DHT22;22242;48.796;9.930;2022-12-18T04:14:51;-6.90;99.90
36206;DHT22;22242;48.796;9.930;2022-12-18T04:17:18;-6.80;99.90
36206;DHT22;22242;48.796;9.930;2022-12-18T04:19:45;-7.00;99.90
36206;DHT22;22242;48.796;9.930;2022-12-18T04:22:12;-6.90;99.90
36206;DHT22;22242;48.796;9.930;2022-12-18T04:24:44;-7.00;99.90
36206;DHT22;22242;48.796;9.930;2022-12-18T04:27:19;-6.90;99.90
36206;DHT22;22242;48.796;9.930;2022-12-18T04:29:48;-6.80;99.90
36206;DHT22;22242;48.796;9.930;2022-12-18T04:32:17;-6.90;99.90
36206;DHT22;22242;48.796;9.930;2022-12-18T04:34:44;-7.10;99.90
36206;DHT22;22242;48.796;9.930;2022-12-18T04:37:11;-6.90;99.90
36206;DHT22;22242;48.796;9.930;2022-12-18T04:39:38;-6.90;99.90
36206;DHT22;22242;48.796;9.930;2022-12-18T04:42:12;-6.90;99.90
36206;DHT22;22242;48.796;9.930;2022-12-18T04:44:39;-6.90;99.90
36206;DHT22;22242;48.796;9.930;2022-12-18T04:47:05;-6.90;99.90
36206;DHT22;22242;48.796;9.930;2022-12-18T04:49:32;-6.90;99.90
36206;DHT22;22242;48.796;9.930;2022-12-18T04:51:59;-6.90;99.90
36206;DHT22;22242;48.796;9.930;2022-12-18T04:54:26;-7.10;99.90
36206;DHT22;22242;48.796;9.930;2022-12-18T04:56:52;-7.20;99.90
36206;DHT22;22242;48.796;9.930;2022-12-18T04:59:20;-7.20;99.90
36206;DHT22;22242;48.796;9.930;2022-12-18T05:01:47;-7.20;99.90
36206;DHT22;22242;48.796;9.930;2022-12-18T05:04:14;-7.20;99.90
36206;DHT22;22242;48.796;9.930;2022-12-18T05:06:40;-7.20;99.90
36206;DHT22;22242;48.796;9.930;2022-12-18T05:09:07;-7.20;99.90
36206;DHT22;22242;48.796;9.930;2022-12-18T05:11:34;-7.20;99.90
36206;DHT22;22242;48.796;9.930;2022-12-18T05:14:00;-7.10;99.90
36206;DHT22;22242;48.796;9.930;2022-12-18T05:16:28;-7.20;99.90
36206;DHT22;22242;48.796;9.930;2022-12-18T05:18:55;-7.10;99.90
36206;DHT22;22242;48.796;9.930;2022-12-18T05:21:22;-7.10;99.90
36206;DHT22;22242;48.796;9.930;2022-12-18T05:23:48;-7.00;99.90
36206;DHT22;22242;48.796;9.930;2022-12-18T05:26:16;-6.90;99.90
36206;DHT22;22242;48.796;9.930;2022-12-18T05:28:43;-6.70;99.90
36206;DHT22;22242;48.796;9.930;2022-12-18T05:31:10;-6.60;99.90
36206;DHT22;22242;48.796;9.930;2022-12-18T05:33:38;-6.60;99.90
36206;DHT22;22242;48.796;9.930;2022-12-18T05:36:05;-6.60;99.90
36206;DHT22;22242;48.796;9.930;2022-12-18T05:38:33;-6.70;99.90
36206;DHT22;22242;48.796;9.930;2022-12-18T05:40:59;-6.60;99.90
36206;DHT22;22242;48.796;9.930;2022-12-18T05:43:26;-6.70;99.90
36206;DHT22;22242;48.796;9.930;2022-12-18T05:45:54;-6.70;99.90
36206;DHT22;22242;48.796;9.930;2022-12-18T05:48:21;-6.50;99.90
36206;DHT22;22242;48.796;9.930;2022-12-18T05:50:49;-6.50;99.90
36206;DHT22;22242;48.796;9.930;2022-12-18T05:53:17;-6.50;99.90
36206;DHT22;22242;48.796;9.930;2022-12-18T05:55:44;-6.40;99.90
36206;DHT22;22242;48.796;9.930;2022-12-18T05:58:12;-6.50;99.90
36206;DHT22;22242;48.796;9.930;2022-12-18T06:00:39;-6.60;99.90
36206;DHT22;22242;48.796;9.930;2022-12-18T06:03:06;-6.50;99.90
36206;DHT22;22242;48.796;9.930;2022-12-18T06:05:34;-6.50;99.90
36206;DHT22;22242;48.796;9.930;2022-12-18T06:08:03;-6.50;99.90
36206;DHT22;22242;48.796;9.930;2022-12-18T06:10:30;-6.50;99.90
36206;DHT22;22242;48.796;9.930;2022-12-18T06:12:56;-6.40;99.90
36206;DHT22;22242;48.796;9.930;2022-12-18T06:15:23;-6.40;99.90
36206;DHT22;22242;48.796;9.930;2022-12-18T06:17:50;-6.30;99.90
36206;DHT22;22242;48.796;9.930;2022-12-18T06:20:16;-6.30;99.90
36206;DHT22;22242;48.796;9.930;2022-12-18T06:22:43;-6.30;99.90
36206;DHT22;22242;48.796;9.930;2022-12-18T06:25:11;-6.30;99.90
36206;DHT22;22242;48.796;9.930;2022-12-18T06:27:38;-6.30;99.90
36206;DHT22;22242;48.796;9.930;2022-12-18T06:30:05;-6.40;99.90
36206;DHT22;22242;48.796;9.930;2022-12-18T06:32:32;-6.40;99.90
36206;DHT22;22242;48.796;9.930;2022-12-18T06:34:59;-6.30;99.90
36206;DHT22;22242;48.796;9.930;2022-12-18T06:37:26;-6.20;99.90
36206;DHT22;22242;48.796;9.930;2022-12-18T06:39:52;-6.20;99.90
36206;DHT22;22242;48.796;9.930;2022-12-18T06:42:21;-6.20;99.90
36206;DHT22;22242;48.796;9.930;2022-12-18T06:44:49;-6.30;99.90
36206;DHT22;22242;48.796;9.930;2022-12-18T06:47:15;-6.40;99.90
36206;DHT22;22242;48.796;9.930;2022-12-18T06:49:42;-6.30;99.90
36206;DHT22;22242;48.796;9.930;2022-12-18T06:52:09;-6.30;99.90
36206;DHT22;22242;48.796;9.930;2022-12-18T06:54:36;-6.30;99.90
36206;DHT22;22242;48.796;9.930;2022-12-18T06:57:02;-6.30;99.90
36206;DHT22;22242;48.796;9.930;2022-12-18T06:59:30;-6.20;99.90
36206;DHT22;22242;48.796;9.930;2022-12-18T07:01:57;-6.20;99.90
36206;DHT22;22242;48.796;9.930;2022-12-18T07:04:27;-6.30;99.90
36206;DHT22;22242;48.796;9.930;2022-12-18T07:06:53;-6.30;99.90
36206;DHT22;22242;48.796;9.930;2022-12-18T07:09:20;-6.30;99.90
36206;DHT22;22242;48.796;9.930;2022-12-18T07:11:47;-6.30;99.90
36206;DHT22;22242;48.796;9.930;2022-12-18T07:14:13;-6.40;99.90
36206;DHT22;22242;48.796;9.930;2022-12-18T07:16:41;-6.40;99.90
36206;DHT22;22242;48.796;9.930;2022-12-18T07:19:08;-6.40;99.90
36206;DHT22;22242;48.796;9.930;2022-12-18T07:21:35;-6.40;99.90
36206;DHT22;22242;48.796;9.930;2022-12-18T07:24:01;-6.40;99.90
36206;DHT22;22242;48.796;9.930;2022-12-18T07:26:28;-6.50;99.90
36206;DHT22;22242;48.796;9.930;2022-12-18T07:28:55;-6.50;99.90
36206;DHT22;22242;48.796;9.930;2022-12-18T07:31:23;-6.50;99.90
36206;DHT22;22242;48.796;9.930;2022-12-18T07:33:51;-6.60;99.90
36206;DHT22;22242;48.796;9.930;2022-12-18T07:36:18;-6.60;99.90
36206;DHT22;22242;48.796;9.930;2022-12-18T07:38:48;-6.60;99.90
36206;DHT22;22242;48.796;9.930;2022-12-18T07:41:15;-6.40;99.90
36206;DHT22;22242;48.796;9.930;2022-12-18T07:43:42;-6.40;99.90
36206;DHT22;22242;48.796;9.930;2022-12-18T07:46:09;-6.40;99.90
36206;DHT22;22242;48.796;9.930;2022-12-18T07:48:35;-6.30;99.90
36206;DHT22;22242;48.796;9.930;2022-12-18T07:51:04;-6.20;99.90
36206;DHT22;22242;48.796;9.930;2022-12-18T07:53:32;-6.10;99.90
36206;DHT22;22242;48.796;9.930;2022-12-18T07:55:59;-6.10;99.90
36206;DHT22;22242;48.796;9.930;2022-12-18T07:58:26;-6.10;99.90
36206;DHT22;22242;48.796;9.930;2022-12-18T08:00:53;-6.00;99.90
36206;DHT22;22242;48.796;9.930;2022-12-18T08:03:20;-6.00;99.90
36206;DHT22;22242;48.796;9.930;2022-12-18T08:05:46;-5.90;99.90
36206;DHT22;22242;48.796;9.930;2022-12-18T08:08:17;-6.00;99.90
36206;DHT22;22242;48.796;9.930;2022-12-18T08:10:44;-5.90;99.90
36206;DHT22;22242;48.796;9.930;2022-12-18T08:13:10;-5.90;99.90
36206;DHT22;22242;48.796;9.930;2022-12-18T08:15:37;-5.80;99.90
36206;DHT22;22242;48.796;9.930;2022-12-18T08:18:04;-5.80;99.90
36206;DHT22;22242;48.796;9.930;2022-12-18T08:20:30;-5.80;99.90
36206;DHT22;22242;48.796;9.930;2022-12-18T08:22:57;-5.70;99.90
36206;DHT22;22242;48.796;9.930;2022-12-18T08:25:25;-5.70;99.90
36206;DHT22;22242;48.796;9.930;2022-12-18T08:27:52;-5.70;99.90
36206;DHT22;22242;48.796;9.930;2022-12-18T08:30:19;-5.50;99.90
36206;DHT22;22242;48.796;9.930;2022-12-18T08:32:45;-5.40;99.90
36206;DHT22;22242;48.796;9.930;2022-12-18T08:35:12;-5.40;99.90
36206;DHT22;22242;48.796;9.930;2022-12-18T08:37:39;-5.50;99.90
36206;DHT22;22242;48.796;9.930;2022-12-18T08:40:06;-5.40;99.90
36206;DHT22;22242;48.796;9.930;2022-12-18T08:42:34;-5.10;99.90
36206;DHT22;22242;48.796;9.930;2022-12-18T08:45:18;-4.70;99.90
36206;DHT22;22242;48.796;9.930;2022-12-18T08:47:45;-3.80;99.90
36206;DHT22;22242;48.796;9.930;2022-12-18T08:50:12;-3.60;99.90
36206;DHT22;22242;48.796;9.930;2022-12-18T08:52:38;-3.20;99.90
36206;DHT22;22242;48.796;9.930;2022-12-18T08:55:05;-2.60;99.90
36206;DHT22;22242;48.796;9.930;2022-12-18T08:57:32;-1.60;99.90
36206;DHT22;22242;48.796;9.930;2022-12-18T09:00:00;-0.60;99.90
36206;DHT22;22242;48.796;9.930;2022-12-18T09:02:27;-0.60;99.90
36206;DHT22;22242;48.796;9.930;2022-12-18T09:04:54;-0.60;99.90
36206;DHT22;22242;48.796;9.930;2022-12-18T09:07:20;0.60;99.90
36206;DHT22;22242;48.796;9.930;2022-12-18T09:09:47;1.00;99.90
36206;DHT22;22242;48.796;9.930;2022-12-18T09:12:13;1.30;99.90
36206;DHT22;22242;48.796;9.930;2022-12-18T09:14:40;1.00;99.90
36206;DHT22;22242;48.796;9.930;2022-12-18T09:17:09;1.30;99.90
36206;DHT22;22242;48.796;9.930;2022-12-18T09:19:36;1.40;99.90
36206;DHT22;22242;48.796;9.930;2022-12-18T09:22:02;1.80;99.90
36206;DHT22;22242;48.796;9.930;2022-12-18T09:24:29;1.80;99.90
36206;DHT22;22242;48.796;9.930;2022-12-18T09:26:56;1.40;99.90
36206;DHT22;22242;48.796;9.930;2022-12-18T09:29:23;1.70;99.90
36206;DHT22;22242;48.796;9.930;2022-12-18T09:31:49;2.50;99.90
36206;DHT22;22242;48.796;9.930;2022-12-18T09:34:17;2.40;99.90
36206;DHT22;22242;48.796;9.930;2022-12-18T09:36:46;2.30;99.90
36206;DHT22;22242;48.796;9.930;2022-12-18T09:39:12;2.60;99.90
36206;DHT22;22242;48.796;9.930;2022-12-18T09:41:41;2.60;99.90
36206;DHT22;22242;48.796;9.930;2022-12-18T09:44:11;3.00;99.80
36206;DHT22;22242;48.796;9.930;2022-12-18T09:46:40;3.10;99.90
36206;DHT22;22242;48.796;9.930;2022-12-18T09:49:11;2.80;99.30
36206;DHT22;22242;48.796;9.930;2022-12-18T09:51:42;3.30;98.30
36206;DHT22;22242;48.796;9.930;2022-12-18T09:54:11;3.30;99.20
36206;DHT22;22242;48.796;9.930;2022-12-18T09:56:40;3.90;97.10
36206;DHT22;22242;48.796;9.930;2022-12-18T09:59:09;3.60;97.80
36206;DHT22;22242;48.796;9.930;2022-12-18T10:01:40;4.00;97.60
36206;DHT22;22242;48.796;9.930;2022-12-18T10:04:07;3.20;98.20
36206;DHT22;22242;48.796;9.930;2022-12-18T10:06:36;2.90;98.90
36206;DHT22;22242;48.796;9.930;2022-12-18T10:09:07;3.40;99.10
36206;DHT22;22242;48.796;9.930;2022-12-18T10:11:38;4.30;96.90
36206;DHT22;22242;48.796;9.930;2022-12-18T10:14:09;5.70;94.40
36206;DHT22;22242;48.796;9.930;2022-12-18T10:16:40;4.40;94.10
36206;DHT22;22242;48.796;9.930;2022-12-18T10:19:13;4.80;94.10
36206;DHT22;22242;48.796;9.930;2022-12-18T10:21:43;4.80;93.60
36206;DHT22;22242;48.796;9.930;2022-12-18T10:27:12;4.60;94.60
36206;DHT22;22242;48.796;9.930;2022-12-18T10:29:40;4.10;94.70
36206;DHT22;22242;48.796;9.930;2022-12-18T10:32:07;4.70;94.20
36206;DHT22;22242;48.796;9.930;2022-12-18T10:34:38;4.10;94.00
36206;DHT22;22242;48.796;9.930;2022-12-18T10:37:06;4.00;95.30
36206;DHT22;22242;48.796;9.930;2022-12-18T10:39:33;4.70;93.80
36206;DHT22;22242;48.796;9.930;2022-12-18T10:42:09;4.50;94.10
36206;DHT22;22242;48.796;9.930;2022-12-18T10:44:37;3.80;95.60
36206;DHT22;22242;48.796;9.930;2022-12-18T10:47:04;3.80;96.70
36206;DHT22;22242;48.796;9.930;2022-12-18T10:49:33;3.30;97.90
36206;DHT22;22242;48.796;9.930;2022-12-18T10:52:04;3.80;96.80
36206;DHT22;22242;48.796;9.930;2022-12-18T10:54:31;2.50;97.50
36206;DHT22;22242;48.796;9.930;2022-12-18T10:57:13;2.40;99.60
36206;DHT22;22242;48.796;9.930;2022-12-18T10:59:49;2.90;98.20
36206;DHT22;22242;48.796;9.930;2022-12-18T11:02:24;4.50;95.70
36206;DHT22;22242;48.796;9.930;2022-12-18T11:04:51;4.60;95.70
36206;DHT22;22242;48.796;9.930;2022-12-18T11:07:18;4.20;96.40
36206;DHT22;22242;48.796;9.930;2022-12-18T11:09:45;3.10;97.30
36206;DHT22;22242;48.796;9.930;2022-12-18T11:12:28;3.20;99.00
36206;DHT22;22242;48.796;9.930;2022-12-18T11:14:56;3.10;98.20
36206;DHT22;22242;48.796;9.930;2022-12-18T11:17:25;2.50;98.70
36206;DHT22;22242;48.796;9.930;2022-12-18T11:19:54;2.70;99.00
36206;DHT22;22242;48.796;9.930;2022-12-18T11:22:23;2.30;99.90
36206;DHT22;22242;48.796;9.930;2022-12-18T11:24:52;1.40;99.90
36206;DHT22;22242;48.796;9.930;2022-12-18T11:27:20;1.60;99.90
36206;DHT22;22242;48.796;9.930;2022-12-18T11:29:47;1.70;99.90
36206;DHT22;22242;48.796;9.930;2022-12-18T11:32:24;1.40;99.90
36206;DHT22;22242;48.796;9.930;2022-12-18T11:34:52;1.00;99.90
36206;DHT22;22242;48.796;9.930;2022-12-18T11:37:20;0.60;99.90
36206;DHT22;22242;48.796;9.930;2022-12-18T11:39:49;1.50;99.90
36206;DHT22;22242;48.796;9.930;2022-12-18T11:42:20;1.50;99.90
36206;DHT22;22242;48.796;9.930;2022-12-18T11:44:49;1.30;99.90
36206;DHT22;22242;48.796;9.930;2022-12-18T11:47:23;0.50;99.90
36206;DHT22;22242;48.796;9.930;2022-12-18T11:49:51;-0.10;99.90
36206;DHT22;22242;48.796;9.930;2022-12-18T11:52:21;0.30;99.90
36206;DHT22;22242;48.796;9.930;2022-12-18T11:54:50;0.30;99.90
36206;DHT22;22242;48.796;9.930;2022-12-18T11:57:19;0.50;99.90
36206;DHT22;22242;48.796;9.930;2022-12-18T11:59:53;0.30;99.90
36206;DHT22;22242;48.796;9.930;2022-12-18T12:02:28;0.20;99.90
36206;DHT22;22242;48.796;9.930;2022-12-18T12:05:10;0.00;99.90
36206;DHT22;22242;48.796;9.930;2022-12-18T12:07:42;-0.10;99.90
36206;DHT22;22242;48.796;9.930;2022-12-18T12:10:14;-0.10;99.90
36206;DHT22;22242;48.796;9.930;2022-12-18T12:12:49;-0.40;99.90
36206;DHT22;22242;48.796;9.930;2022-12-18T12:15:24;-0.70;99.90
36206;DHT22;22242;48.796;9.930;2022-12-18T12:17:58;-0.60;99.90
36206;DHT22;22242;48.796;9.930;2022-12-18T12:20:31;-1.00;99.90
36206;DHT22;22242;48.796;9.930;2022-12-18T12:23:01;-1.00;99.90
36206;DHT22;22242;48.796;9.930;2022-12-18T12:25:31;-0.60;99.90
36206;DHT22;22242;48.796;9.930;2022-12-18T12:28:03;-1.10;99.90
36206;DHT22;22242;48.796;9.930;2022-12-18T12:30:40;-1.20;99.90
36206;DHT22;22242;48.796;9.930;2022-12-18T12:33:14;-1.40;99.90
36206;DHT22;22242;48.796;9.930;2022-12-18T12:35:47;-1.70;99.90
36206;DHT22;22242;48.796;9.930;2022-12-18T12:38:17;-1.70;99.90
36206;DHT22;22242;48.796;9.930;2022-12-18T12:40:46;-1.60;99.90
36206;DHT22;22242;48.796;9.930;2022-12-18T12:43:22;-1.60;99.90
36206;DHT22;22242;48.796;9.930;2022-12-18T12:45:49;-1.40;99.90
36206;DHT22;22242;48.796;9.930;2022-12-18T12:48:20;-1.70;99.90
36206;DHT22;22242;48.796;9.930;2022-12-18T12:50:51;-1.60;99.90
36206;DHT22;22242;48.796;9.930;2022-12-18T12:53:21;-1.70;99.90
36206;DHT22;22242;48.796;9.930;2022-12-18T12:55:50;-2.00;99.90
36206;DHT22;22242;48.796;9.930;2022-12-18T12:58:18;-1.70;99.90
36206;DHT22;22242;48.796;9.930;2022-12-18T13:00:46;-1.60;99.90
36206;DHT22;22242;48.796;9.930;2022-12-18T13:03:18;-1.70;99.90
36206;DHT22;22242;48.796;9.930;2022-12-18T13:05:52;-1.80;99.90
36206;DHT22;22242;48.796;9.930;2022-12-18T13:08:23;-1.60;99.90
36206;DHT22;22242;48.796;9.930;2022-12-18T13:10:51;-2.00;99.90
36206;DHT22;22242;48.796;9.930;2022-12-18T13:13:47;-1.90;99.90
36206;DHT22;22242;48.796;9.930;2022-12-18T13:16:13;-1.80;99.90
36206;DHT22;22242;48.796;9.930;2022-12-18T13:18:47;-1.70;99.90
36206;DHT22;22242;48.796;9.930;2022-12-18T13:21:17;-1.80;99.90
36206;DHT22;22242;48.796;9.930;2022-12-18T13:23:45;-1.60;99.90
36206;DHT22;22242;48.796;9.930;2022-12-18T13:26:28;-1.50;99.90
36206;DHT22;22242;48.796;9.930;2022-12-18T13:28:56;-1.80;99.90
36206;DHT22;22242;48.796;9.930;2022-12-18T13:34:14;-1.70;99.90
36206;DHT22;22242;48.796;9.930;2022-12-18T13:36:43;-1.90;99.90
36206;DHT22;22242;48.796;9.930;2022-12-18T13:39:24;-1.90;99.90
36206;DHT22;22242;48.796;9.930;2022-12-18T13:41:52;-1.70;99.90
36206;DHT22;22242;48.796;9.930;2022-12-18T13:44:26;-1.60;99.90
36206;DHT22;22242;48.796;9.930;2022-12-18T13:46:54;-1.60;99.90
36206;DHT22;22242;48.796;9.930;2022-12-18T13:49:22;-1.50;99.90
36206;DHT22;22242;48.796;9.930;2022-12-18T13:51:52;-1.80;99.90
36206;DHT22;22242;48.796;9.930;2022-12-18T13:54:20;-1.80;99.90
36206;DHT22;22242;48.796;9.930;2022-12-18T13:56:50;-2.00;99.90
36206;DHT22;22242;48.796;9.930;2022-12-18T13:59:18;-1.90;99.90
36206;DHT22;22242;48.796;9.930;2022-12-18T14:01:47;-2.00;99.90
36206;DHT22;22242;48.796;9.930;2022-12-18T14:04:18;-2.00;99.90
36206;DHT22;22242;48.796;9.930;2022-12-18T14:06:45;-2.00;99.90
36206;DHT22;22242;48.796;9.930;2022-12-18T14:09:14;-2.10;99.90
36206;DHT22;22242;48.796;9.930;2022-12-18T14:11:45;-2.10;99.90
36206;DHT22;22242;48.796;9.930;2022-12-18T14:14:13;-2.20;99.90
36206;DHT22;22242;48.796;9.930;2022-12-18T14:16:40;-2.40;99.90
36206;DHT22;22242;48.796;9.930;2022-12-18T14:19:08;-2.30;99.90
36206;DHT22;22242;48.796;9.930;2022-12-18T14:21:38;-2.40;99.90
36206;DHT22;22242;48.796;9.930;2022-12-18T14:24:06;-2.20;99.90
36206;DHT22;22242;48.796;9.930;2022-12-18T14:26:39;-2.40;99.90
36206;DHT22;22242;48.796;9.930;2022-12-18T14:29:20;-2.50;99.90
36206;DHT22;22242;48.796;9.930;2022-12-18T14:34:29;-2.50;99.90
36206;DHT22;22242;48.796;9.930;2022-12-18T14:36:55;-2.60;99.90
36206;DHT22;22242;48.796;9.930;2022-12-18T14:39:22;-2.70;99.90
36206;DHT22;22242;48.796;9.930;2022-12-18T14:41:52;-2.70;99.90
36206;DHT22;22242;48.796;9.930;2022-12-18T14:44:18;-2.70;99.90
36206;DHT22;22242;48.796;9.930;2022-12-18T14:46:46;-2.80;99.90
36206;DHT22;22242;48.796;9.930;2022-12-18T14:49:18;-2.80;99.90
36206;DHT22;22242;48.796;9.930;2022-12-18T14:51:46;-2.90;99.90
36206;DHT22;22242;48.796;9.930;2022-12-18T14:54:14;-3.00;99.90
36206;DHT22;22242;48.796;9.930;2022-12-18T14:56:43;-3.10;99.90
36206;DHT22;22242;48.796;9.930;2022-12-18T14:59:13;-3.00;99.90
36206;DHT22;22242;48.796;9.930;2022-12-18T15:01:44;-3.10;99.90
36206;DHT22;22242;48.796;9.930;2022-12-18T15:04:22;-3.20;99.90
36206;DHT22;22242;48.796;9.930;2022-12-18T15:06:50;-3.30;99.90
36206;DHT22;22242;48.796;9.930;2022-12-18T15:09:28;-3.30;99.90
36206;DHT22;22242;48.796;9.930;2022-12-18T15:11:55;-3.40;99.90
36206;DHT22;22242;48.796;9.930;2022-12-18T15:14:34;-3.50;99.90
36206;DHT22;22242;48.796;9.930;2022-12-18T15:17:02;-3.50;99.90
36206;DHT22;22242;48.796;9.930;2022-12-18T15:19:32;-3.60;99.90
36206;DHT22;22242;48.796;9.930;2022-12-18T15:22:00;-3.60;99.90
36206;DHT22;22242;48.796;9.930;2022-12-18T15:24:29;-3.70;99.90
36206;DHT22;22242;48.796;9.930;2022-12-18T15:26:56;-3.70;99.90
36206;DHT22;22242;48.796;9.930;2022-12-18T15:29:23;-3.60;99.90
36206;DHT22;22242;48.796;9.930;2022-12-18T15:34:36;-3.60;99.90
36206;DHT22;22242;48.796;9.930;2022-12-18T15:37:02;-3.80;99.90
36206;DHT22;22242;48.796;9.930;2022-12-18T15:39:29;-3.90;99.90
36206;DHT22;22242;48.796;9.930;2022-12-18T15:41:56;-3.80;99.90
36206;DHT22;22242;48.796;9.930;2022-12-18T15:44:40;-3.70;99.90
36206;DHT22;22242;48.796;9.930;2022-12-18T15:47:10;-3.70;99.90
36206;DHT22;22242;48.796;9.930;2022-12-18T15:49:39;-3.80;99.90
36206;DHT22;22242;48.796;9.930;2022-12-18T15:52:05;-3.80;99.90
36206;DHT22;22242;48.796;9.930;2022-12-18T15:54:32;-3.80;99.90
36206;DHT22;22242;48.796;9.930;2022-12-18T15:57:17;-3.70;99.90